sensor_id;sensor_type;location;lat;lon;timestamp;P1;durP1;ratioP1;P2;durP2;ratioP2
2049;SDS011;8478;49.208;8.806;2023-04-15T00:01:50;4.90;;;4.50;;
2049;SDS011;8478;49.208;8.806;2023-04-15T00:04:16;4.63;;;4.23;;
2049;SDS011;8478;49.208;8.806;2023-04-15T00:06:42;4.50;;;4.10;;
2049;SDS011;8478;49.208;8.806;2023-04-15T00:09:13;4.20;;;3.90;;
2049;SDS011;8478;49.208;8.806;2023-04-15T00:11:39;4.60;;;4.13;;
2049;SDS011;8478;49.208;8.806;2023-04-15T00:14:05;3.70;;;3.40;;
2049;SDS011;8478;49.208;8.806;2023-04-15T00:16:31;4.27;;;4.00;;
2049;SDS011;8478;49.208;8.806;2023-04-15T00:18:57;4.10;;;3.80;;
2049;SDS011;8478;49.208;8.806;2023-04-15T00:21:22;4.47;;;4.07;;
2049;SDS011;8478;49.208;8.806;2023-04-15T00:23:48;4.60;;;4.20;;
2049;SDS011;8478;49.208;8.806;2023-04-15T00:26:16;4.80;;;4.20;;
2049;SDS011;8478;49.208;8.806;2023-04-15T00:28:43;16.63;;;5.00;;
2049;SDS011;8478;49.208;8.806;2023-04-15T00:31:09;3.80;;;3.50;;
2049;SDS011;8478;49.208;8.806;2023-04-15T00:33:35;4.07;;;3.77;;
2049;SDS011;8478;49.208;8.806;2023-04-15T00:36:02;3.73;;;3.40;;
2049;SDS011;8478;49.208;8.806;2023-04-15T00:38:28;4.67;;;4.30;;
2049;SDS011;8478;49.208;8.806;2023-04-15T00:40:54;4.30;;;4.00;;
2049;SDS011;8478;49.208;8.806;2023-04-15T00:43:20;3.63;;;3.43;;
2049;SDS011;8478;49.208;8.806;2023-04-15T00:45:46;4.20;;;3.90;;
2049;SDS011;8478;49.208;8.806;2023-04-15T00:48:12;4.07;;;3.70;;
2049;SDS011;8478;49.208;8.806;2023-04-15T00:50:37;3.77;;;3.47;;
2049;SDS011;8478;49.208;8.806;2023-04-15T00:53:03;4.50;;;4.03;;
2049;SDS011;8478;49.208;8.806;2023-04-15T00:55:29;3.87;;;3.53;;
2049;SDS011;8478;49.208;8.806;2023-04-15T00:57:55;4.37;;;3.97;;
2049;SDS011;8478;49.208;8.806;2023-04-15T01:00:21;3.63;;;3.40;;
2049;SDS011;8478;49.208;8.806;2023-04-15T01:02:48;3.90;;;3.60;;
2049;SDS011;8478;49.208;8.806;2023-04-15T01:05:15;4.50;;;4.20;;
2049;SDS011;8478;49.208;8.806;2023-04-15T01:07:42;4.50;;;4.10;;
2049;SDS011;8478;49.208;8.806;2023-04-15T01:10:08;4.30;;;3.90;;
2049;SDS011;8478;49.208;8.806;2023-04-15T01:12:34;4.87;;;4.07;;
2049;SDS011;8478;49.208;8.806;2023-04-15T01:15:01;4.77;;;4.37;;
2049;SDS011;8478;49.208;8.806;2023-04-15T01:17:28;4.33;;;3.90;;
2049;SDS011;8478;49.208;8.806;2023-04-15T01:19:54;4.60;;;4.13;;
2049;SDS011;8478;49.208;8.806;2023-04-15T01:22:22;4.43;;;4.13;;
2049;SDS011;8478;49.208;8.806;2023-04-15T01:27:51;4.83;;;4.40;;
2049;SDS011;8478;49.208;8.806;2023-04-15T01:30:16;4.73;;;4.33;;
2049;SDS011;8478;49.208;8.806;2023-04-15T01:32:42;6.20;;;4.60;;
2049;SDS011;8478;49.208;8.806;2023-04-15T01:35:08;4.80;;;4.43;;
2049;SDS011;8478;49.208;8.806;2023-04-15T01:37:34;4.10;;;3.60;;
2049;SDS011;8478;49.208;8.806;2023-04-15T01:40:01;5.57;;;5.07;;
2049;SDS011;8478;49.208;8.806;2023-04-15T01:42:28;4.60;;;4.20;;
2049;SDS011;8478;49.208;8.806;2023-04-15T01:44:59;4.00;;;3.60;;
2049;SDS011;8478;49.208;8.806;2023-04-15T01:47:29;3.90;;;3.70;;
2049;SDS011;8478;49.208;8.806;2023-04-15T01:49:54;4.87;;;4.57;;
2049;SDS011;8478;49.208;8.806;2023-04-15T01:52:20;5.27;;;3.97;;
2049;SDS011;8478;49.208;8.806;2023-04-15T01:54:46;4.50;;;4.10;;
2049;SDS011;8478;49.208;8.806;2023-04-15T01:57:12;5.03;;;4.53;;
2049;SDS011;8478;49.208;8.806;2023-04-15T01:59:37;4.60;;;4.30;;
2049;SDS011;8478;49.208;8.806;2023-04-15T02:02:03;5.07;;;4.57;;
2049;SDS011;8478;49.208;8.806;2023-04-15T02:04:29;5.03;;;4.53;;
2049;SDS011;8478;49.208;8.806;2023-04-15T02:06:55;4.33;;;3.93;;
2049;SDS011;8478;49.208;8.806;2023-04-15T02:09:21;4.60;;;4.30;;
2049;SDS011;8478;49.208;8.806;2023-04-15T02:11:47;5.20;;;4.70;;
2049;SDS011;8478;49.208;8.806;2023-04-15T02:14:12;4.20;;;3.90;;
2049;SDS011;8478;49.208;8.806;2023-04-15T02:16:38;5.63;;;4.17;;
2049;SDS011;8478;49.208;8.806;2023-04-15T02:19:04;4.83;;;4.40;;
2049;SDS011;8478;49.208;8.806;2023-04-15T02:21:30;5.17;;;4.70;;
2049;SDS011;8478;49.208;8.806;2023-04-15T02:23:55;4.40;;;4.00;;
2049;SDS011;8478;49.208;8.806;2023-04-15T02:26:21;4.73;;;4.40;;
2049;SDS011;8478;49.208;8.806;2023-04-15T02:28:49;4.70;;;4.30;;
2049;SDS011;8478;49.208;8.806;2023-04-15T02:31:15;3.83;;;3.60;;
2049;SDS011;8478;49.208;8.806;2023-04-15T02:33:41;4.30;;;3.90;;
2049;SDS011;8478;49.208;8.806;2023-04-15T02:36:07;4.40;;;4.10;;
2049;SDS011;8478;49.208;8.806;2023-04-15T02:38:34;4.33;;;4.03;;
2049;SDS011;8478;49.208;8.806;2023-04-15T02:41:00;4.70;;;4.30;;
2049;SDS011;8478;49.208;8.806;2023-04-15T02:43:26;5.00;;;4.07;;
2049;SDS011;8478;49.208;8.806;2023-04-15T02:45:54;5.53;;;4.70;;
2049;SDS011;8478;49.208;8.806;2023-04-15T02:48:28;4.70;;;4.30;;
2049;SDS011;8478;49.208;8.806;2023-04-15T02:51:09;4.30;;;3.90;;
2049;SDS011;8478;49.208;8.806;2023-04-15T02:53:40;4.33;;;4.07;;
2049;SDS011;8478;49.208;8.806;2023-04-15T02:56:06;3.90;;;3.60;;
2049;SDS011;8478;49.208;8.806;2023-04-15T02:58:33;5.23;;;4.67;;
2049;SDS011;8478;49.208;8.806;2023-04-15T03:01:03;4.00;;;3.50;;
2049;SDS011;8478;49.208;8.806;2023-04-15T03:03:29;4.63;;;4.30;;
2049;SDS011;8478;49.208;8.806;2023-04-15T03:05:55;4.30;;;3.90;;
2049;SDS011;8478;49.208;8.806;2023-04-15T03:08:20;5.20;;;4.80;;
2049;SDS011;8478;49.208;8.806;2023-04-15T03:10:46;5.30;;;4.40;;
2049;SDS011;8478;49.208;8.806;2023-04-15T03:13:13;4.43;;;3.83;;
2049;SDS011;8478;49.208;8.806;2023-04-15T03:15:38;4.27;;;3.97;;
2049;SDS011;8478;49.208;8.806;2023-04-15T03:18:04;4.40;;;4.07;;
2049;SDS011;8478;49.208;8.806;2023-04-15T03:20:30;4.20;;;3.90;;
2049;SDS011;8478;49.208;8.806;2023-04-15T03:22:56;5.10;;;4.70;;
2049;SDS011;8478;49.208;8.806;2023-04-15T03:25:21;4.70;;;4.40;;
2049;SDS011;8478;49.208;8.806;2023-04-15T03:27:47;4.30;;;3.90;;
2049;SDS011;8478;49.208;8.806;2023-04-15T03:30:12;4.67;;;4.27;;
2049;SDS011;8478;49.208;8.806;2023-04-15T03:32:38;5.00;;;4.60;;
2049;SDS011;8478;49.208;8.806;2023-04-15T03:35:04;4.70;;;4.30;;
2049;SDS011;8478;49.208;8.806;2023-04-15T03:37:30;5.03;;;4.67;;
2049;SDS011;8478;49.208;8.806;2023-04-15T03:39:56;4.53;;;4.20;;
2049;SDS011;8478;49.208;8.806;2023-04-15T03:42:21;5.73;;;4.60;;
2049;SDS011;8478;49.208;8.806;2023-04-15T03:44:47;4.67;;;4.27;;
2049;SDS011;8478;49.208;8.806;2023-04-15T03:47:13;4.10;;;3.80;;
2049;SDS011;8478;49.208;8.806;2023-04-15T03:49:39;4.67;;;4.27;;
2049;SDS011;8478;49.208;8.806;2023-04-15T03:52:05;5.23;;;4.83;;
2049;SDS011;8478;49.208;8.806;2023-04-15T03:54:31;4.83;;;4.43;;
2049;SDS011;8478;49.208;8.806;2023-04-15T03:56:56;5.07;;;4.60;;
2049;SDS011;8478;49.208;8.806;2023-04-15T03:59:22;5.30;;;4.90;;
2049;SDS011;8478;49.208;8.806;2023-04-15T04:01:48;5.07;;;4.63;;
2049;SDS011;8478;49.208;8.806;2023-04-15T04:04:14;4.93;;;4.47;;
2049;SDS011;8478;49.208;8.806;2023-04-15T04:06:40;5.50;;;4.10;;
2049;SDS011;8478;49.208;8.806;2023-04-15T04:09:06;5.13;;;4.73;;
2049;SDS011;8478;49.208;8.806;2023-04-15T04:11:31;5.43;;;4.90;;
2049;SDS011;8478;49.208;8.806;2023-04-15T04:13:57;4.80;;;4.50;;
2049;SDS011;8478;49.208;8.806;2023-04-15T04:16:23;5.10;;;4.70;;
2049;SDS011;8478;49.208;8.806;2023-04-15T04:18:48;4.80;;;4.40;;
2049;SDS011;8478;49.208;8.806;2023-04-15T04:21:14;5.10;;;4.60;;
2049;SDS011;8478;49.208;8.806;2023-04-15T04:23:40;4.93;;;4.53;;
2049;SDS011;8478;49.208;8.806;2023-04-15T04:26:06;4.87;;;4.27;;
2049;SDS011;8478;49.208;8.806;2023-04-15T04:28:32;5.27;;;4.77;;
2049;SDS011;8478;49.208;8.806;2023-04-15T04:30:59;4.33;;;4.00;;
2049;SDS011;8478;49.208;8.806;2023-04-15T04:33:25;4.53;;;4.13;;
2049;SDS011;8478;49.208;8.806;2023-04-15T04:35:50;4.80;;;4.40;;
2049;SDS011;8478;49.208;8.806;2023-04-15T04:38:16;5.03;;;4.00;;
2049;SDS011;8478;49.208;8.806;2023-04-15T04:40:42;4.47;;;4.17;;
2049;SDS011;8478;49.208;8.806;2023-04-15T04:43:07;4.50;;;4.10;;
2049;SDS011;8478;49.208;8.806;2023-04-15T04:45:34;4.57;;;4.17;;
2049;SDS011;8478;49.208;8.806;2023-04-15T04:48:00;4.50;;;4.13;;
2049;SDS011;8478;49.208;8.806;2023-04-15T04:50:26;5.53;;;4.47;;
2049;SDS011;8478;49.208;8.806;2023-04-15T04:52:51;4.80;;;4.50;;
2049;SDS011;8478;49.208;8.806;2023-04-15T04:55:17;4.20;;;3.90;;
2049;SDS011;8478;49.208;8.806;2023-04-15T04:57:43;4.60;;;4.20;;
2049;SDS011;8478;49.208;8.806;2023-04-15T05:00:08;4.23;;;3.93;;
2049;SDS011;8478;49.208;8.806;2023-04-15T05:02:34;4.50;;;4.10;;
2049;SDS011;8478;49.208;8.806;2023-04-15T05:05:00;4.30;;;4.00;;
2049;SDS011;8478;49.208;8.806;2023-04-15T05:07:26;4.97;;;4.67;;
2049;SDS011;8478;49.208;8.806;2023-04-15T05:09:52;4.20;;;3.90;;
2049;SDS011;8478;49.208;8.806;2023-04-15T05:12:17;4.70;;;4.40;;
2049;SDS011;8478;49.208;8.806;2023-04-15T05:14:43;4.40;;;4.00;;
2049;SDS011;8478;49.208;8.806;2023-04-15T05:17:10;4.40;;;4.10;;
2049;SDS011;8478;49.208;8.806;2023-04-15T05:19:36;4.67;;;4.23;;
2049;SDS011;8478;49.208;8.806;2023-04-15T05:22:02;3.80;;;3.50;;
2049;SDS011;8478;49.208;8.806;2023-04-15T05:24:28;5.03;;;4.57;;
2049;SDS011;8478;49.208;8.806;2023-04-15T05:26:53;4.80;;;4.40;;
2049;SDS011;8478;49.208;8.806;2023-04-15T05:29:20;4.20;;;3.90;;
2049;SDS011;8478;49.208;8.806;2023-04-15T05:31:46;4.30;;;4.00;;
2049;SDS011;8478;49.208;8.806;2023-04-15T05:34:11;5.17;;;4.77;;
2049;SDS011;8478;49.208;8.806;2023-04-15T05:36:39;4.70;;;4.30;;
2049;SDS011;8478;49.208;8.806;2023-04-15T05:39:05;5.23;;;4.40;;
2049;SDS011;8478;49.208;8.806;2023-04-15T05:41:31;4.53;;;4.20;;
2049;SDS011;8478;49.208;8.806;2023-04-15T05:43:57;4.90;;;4.40;;
2049;SDS011;8478;49.208;8.806;2023-04-15T05:46:22;4.23;;;3.83;;
2049;SDS011;8478;49.208;8.806;2023-04-15T05:48:48;8.70;;;4.27;;
2049;SDS011;8478;49.208;8.806;2023-04-15T05:51:14;4.70;;;4.30;;
2049;SDS011;8478;49.208;8.806;2023-04-15T05:53:40;5.73;;;4.20;;
2049;SDS011;8478;49.208;8.806;2023-04-15T05:56:06;4.40;;;4.00;;
2049;SDS011;8478;49.208;8.806;2023-04-15T05:58:31;4.10;;;3.80;;
2049;SDS011;8478;49.208;8.806;2023-04-15T06:00:57;4.73;;;4.33;;
2049;SDS011;8478;49.208;8.806;2023-04-15T06:03:23;4.60;;;4.20;;
2049;SDS011;8478;49.208;8.806;2023-04-15T06:05:49;5.03;;;4.67;;
2049;SDS011;8478;49.208;8.806;2023-04-15T06:08:15;4.47;;;4.17;;
2049;SDS011;8478;49.208;8.806;2023-04-15T06:10:41;6.80;;;4.47;;
2049;SDS011;8478;49.208;8.806;2023-04-15T06:13:07;4.60;;;4.23;;
2049;SDS011;8478;49.208;8.806;2023-04-15T06:15:32;5.27;;;4.57;;
2049;SDS011;8478;49.208;8.806;2023-04-15T06:17:58;4.33;;;4.03;;
2049;SDS011;8478;49.208;8.806;2023-04-15T06:20:24;4.90;;;4.53;;
2049;SDS011;8478;49.208;8.806;2023-04-15T06:22:49;4.83;;;4.57;;
2049;SDS011;8478;49.208;8.806;2023-04-15T06:25:15;5.47;;;5.07;;
2049;SDS011;8478;49.208;8.806;2023-04-15T06:27:41;4.57;;;4.23;;
2049;SDS011;8478;49.208;8.806;2023-04-15T06:30:07;5.40;;;4.90;;
2049;SDS011;8478;49.208;8.806;2023-04-15T06:32:33;5.03;;;4.73;;
2049;SDS011;8478;49.208;8.806;2023-04-15T06:34:58;4.83;;;4.30;;
2049;SDS011;8478;49.208;8.806;2023-04-15T06:37:24;5.13;;;4.73;;
2049;SDS011;8478;49.208;8.806;2023-04-15T06:39:50;4.50;;;4.10;;
2049;SDS011;8478;49.208;8.806;2023-04-15T06:42:15;5.40;;;4.90;;
2049;SDS011;8478;49.208;8.806;2023-04-15T06:44:41;5.40;;;5.00;;
2049;SDS011;8478;49.208;8.806;2023-04-15T06:47:07;6.07;;;4.63;;
2049;SDS011;8478;49.208;8.806;2023-04-15T06:49:33;4.77;;;4.37;;
2049;SDS011;8478;49.208;8.806;2023-04-15T06:51:59;5.73;;;5.00;;
2049;SDS011;8478;49.208;8.806;2023-04-15T06:54:25;5.43;;;5.00;;
2049;SDS011;8478;49.208;8.806;2023-04-15T06:56:51;6.33;;;5.93;;
2049;SDS011;8478;49.208;8.806;2023-04-15T06:59:17;6.03;;;5.63;;
2049;SDS011;8478;49.208;8.806;2023-04-15T07:01:43;6.57;;;6.03;;
2049;SDS011;8478;49.208;8.806;2023-04-15T07:04:09;6.03;;;5.60;;
2049;SDS011;8478;49.208;8.806;2023-04-15T07:06:35;6.40;;;6.00;;
2049;SDS011;8478;49.208;8.806;2023-04-15T07:09:01;7.00;;;6.40;;
2049;SDS011;8478;49.208;8.806;2023-04-15T07:11:27;6.57;;;6.03;;
2049;SDS011;8478;49.208;8.806;2023-04-15T07:13:53;6.50;;;6.10;;
2049;SDS011;8478;49.208;8.806;2023-04-15T07:16:19;6.60;;;6.10;;
2049;SDS011;8478;49.208;8.806;2023-04-15T07:18:45;6.93;;;6.00;;
2049;SDS011;8478;49.208;8.806;2023-04-15T07:21:10;7.10;;;6.57;;
2049;SDS011;8478;49.208;8.806;2023-04-15T07:23:36;6.10;;;5.70;;
2049;SDS011;8478;49.208;8.806;2023-04-15T07:26:02;6.87;;;6.27;;
2049;SDS011;8478;49.208;8.806;2023-04-15T07:28:28;7.13;;;6.63;;
2049;SDS011;8478;49.208;8.806;2023-04-15T07:30:54;6.60;;;6.10;;
2049;SDS011;8478;49.208;8.806;2023-04-15T07:33:21;6.13;;;5.63;;
2049;SDS011;8478;49.208;8.806;2023-04-15T07:35:47;6.10;;;5.60;;
2049;SDS011;8478;49.208;8.806;2023-04-15T07:38:14;6.97;;;6.47;;
2049;SDS011;8478;49.208;8.806;2023-04-15T07:40:53;5.80;;;5.50;;
2049;SDS011;8478;49.208;8.806;2023-04-15T07:43:22;5.60;;;5.20;;
2049;SDS011;8478;49.208;8.806;2023-04-15T07:45:59;6.70;;;6.20;;
2049;SDS011;8478;49.208;8.806;2023-04-15T07:48:26;6.00;;;5.60;;
2049;SDS011;8478;49.208;8.806;2023-04-15T07:50:57;6.40;;;5.90;;
2049;SDS011;8478;49.208;8.806;2023-04-15T07:53:45;6.60;;;6.13;;
2049;SDS011;8478;49.208;8.806;2023-04-15T07:56:12;6.23;;;5.77;;
2049;SDS011;8478;49.208;8.806;2023-04-15T07:58:38;6.17;;;5.73;;
2049;SDS011;8478;49.208;8.806;2023-04-15T08:01:04;6.70;;;6.20;;
2049;SDS011;8478;49.208;8.806;2023-04-15T08:03:30;5.37;;;4.97;;
2049;SDS011;8478;49.208;8.806;2023-04-15T08:05:56;6.00;;;5.50;;
2049;SDS011;8478;49.208;8.806;2023-04-15T08:08:21;5.70;;;5.30;;
2049;SDS011;8478;49.208;8.806;2023-04-15T08:10:47;5.50;;;5.10;;
2049;SDS011;8478;49.208;8.806;2023-04-15T08:13:13;5.67;;;5.20;;
2049;SDS011;8478;49.208;8.806;2023-04-15T08:15:40;5.43;;;5.03;;
2049;SDS011;8478;49.208;8.806;2023-04-15T08:18:06;5.60;;;5.10;;
2049;SDS011;8478;49.208;8.806;2023-04-15T08:20:32;6.40;;;6.00;;
2049;SDS011;8478;49.208;8.806;2023-04-15T08:22:57;5.87;;;5.47;;
2049;SDS011;8478;49.208;8.806;2023-04-15T08:25:23;5.50;;;5.10;;
2049;SDS011;8478;49.208;8.806;2023-04-15T08:27:49;5.30;;;4.90;;
2049;SDS011;8478;49.208;8.806;2023-04-15T08:30:14;5.30;;;5.00;;
2049;SDS011;8478;49.208;8.806;2023-04-15T08:32:48;4.93;;;4.47;;
2049;SDS011;8478;49.208;8.806;2023-04-15T08:35:15;5.67;;;5.17;;
2049;SDS011;8478;49.208;8.806;2023-04-15T08:37:40;5.83;;;5.43;;
2049;SDS011;8478;49.208;8.806;2023-04-15T08:40:06;6.93;;;5.40;;
2049;SDS011;8478;49.208;8.806;2023-04-15T08:42:41;5.30;;;4.87;;
2049;SDS011;8478;49.208;8.806;2023-04-15T08:45:10;6.57;;;5.10;;
2049;SDS011;8478;49.208;8.806;2023-04-15T08:47:36;5.17;;;4.77;;
2049;SDS011;8478;49.208;8.806;2023-04-15T08:50:07;5.80;;;5.23;;
2049;SDS011;8478;49.208;8.806;2023-04-15T08:57:05;5.37;;;4.97;;
2049;SDS011;8478;49.208;8.806;2023-04-15T09:00:47;5.73;;;5.23;;
2049;SDS011;8478;49.208;8.806;2023-04-15T09:03:13;5.07;;;4.67;;
2049;SDS011;8478;49.208;8.806;2023-04-15T09:05:39;5.27;;;4.87;;
2049;SDS011;8478;49.208;8.806;2023-04-15T09:08:05;4.53;;;4.23;;
2049;SDS011;8478;49.208;8.806;2023-04-15T09:10:31;5.93;;;5.30;;
2049;SDS011;8478;49.208;8.806;2023-04-15T09:12:57;5.60;;;5.10;;
2049;SDS011;8478;49.208;8.806;2023-04-15T09:15:23;5.10;;;4.80;;
2049;SDS011;8478;49.208;8.806;2023-04-15T09:17:51;5.67;;;5.07;;
2049;SDS011;8478;49.208;8.806;2023-04-15T09:20:17;5.57;;;5.07;;
2049;SDS011;8478;49.208;8.806;2023-04-15T09:22:44;5.70;;;5.30;;
2049;SDS011;8478;49.208;8.806;2023-04-15T09:27:49;6.03;;;5.43;;
2049;SDS011;8478;49.208;8.806;2023-04-15T09:30:15;6.27;;;5.30;;
2049;SDS011;8478;49.208;8.806;2023-04-15T09:32:51;6.37;;;5.80;;
2049;SDS011;8478;49.208;8.806;2023-04-15T09:35:25;5.83;;;5.43;;
2049;SDS011;8478;49.208;8.806;2023-04-15T09:37:51;7.37;;;6.00;;
2049;SDS011;8478;49.208;8.806;2023-04-15T09:40:31;6.00;;;5.53;;
2049;SDS011;8478;49.208;8.806;2023-04-15T09:42:58;6.43;;;5.00;;
2049;SDS011;8478;49.208;8.806;2023-04-15T09:45:26;5.67;;;5.23;;
2049;SDS011;8478;49.208;8.806;2023-04-15T09:47:52;6.47;;;5.10;;
2049;SDS011;8478;49.208;8.806;2023-04-15T09:50:18;5.40;;;4.80;;
2049;SDS011;8478;49.208;8.806;2023-04-15T09:52:44;5.40;;;5.10;;
2049;SDS011;8478;49.208;8.806;2023-04-15T09:55:11;6.67;;;4.67;;
2049;SDS011;8478;49.208;8.806;2023-04-15T09:57:38;6.00;;;5.50;;
2049;SDS011;8478;49.208;8.806;2023-04-15T10:00:08;4.97;;;4.57;;
2049;SDS011;8478;49.208;8.806;2023-04-15T10:02:44;5.27;;;4.77;;
2049;SDS011;8478;49.208;8.806;2023-04-15T10:05:13;5.33;;;4.83;;
2049;SDS011;8478;49.208;8.806;2023-04-15T10:07:41;4.83;;;4.43;;
2049;SDS011;8478;49.208;8.806;2023-04-15T10:10:08;5.67;;;5.27;;
2049;SDS011;8478;49.208;8.806;2023-04-15T10:12:36;5.80;;;5.30;;
2049;SDS011;8478;49.208;8.806;2023-04-15T10:15:03;5.30;;;4.40;;
2049;SDS011;8478;49.208;8.806;2023-04-15T10:17:29;4.80;;;4.50;;
2049;SDS011;8478;49.208;8.806;2023-04-15T10:20:01;4.77;;;4.47;;
2049;SDS011;8478;49.208;8.806;2023-04-15T10:22:28;5.27;;;4.73;;
2049;SDS011;8478;49.208;8.806;2023-04-15T10:24:55;4.50;;;4.20;;
2049;SDS011;8478;49.208;8.806;2023-04-15T10:27:21;5.03;;;4.63;;
2049;SDS011;8478;49.208;8.806;2023-04-15T10:29:48;5.07;;;4.67;;
2049;SDS011;8478;49.208;8.806;2023-04-15T10:32:16;5.27;;;4.23;;
2049;SDS011;8478;49.208;8.806;2023-04-15T10:34:44;5.83;;;4.20;;
2049;SDS011;8478;49.208;8.806;2023-04-15T10:37:12;5.07;;;4.73;;
2049;SDS011;8478;49.208;8.806;2023-04-15T10:39:44;4.30;;;4.10;;
2049;SDS011;8478;49.208;8.806;2023-04-15T10:44:38;5.43;;;5.03;;
2049;SDS011;8478;49.208;8.806;2023-04-15T10:47:09;4.43;;;4.13;;
2049;SDS011;8478;49.208;8.806;2023-04-15T10:49:43;5.17;;;4.17;;
2049;SDS011;8478;49.208;8.806;2023-04-15T10:52:11;5.00;;;4.60;;
2049;SDS011;8478;49.208;8.806;2023-04-15T10:54:38;4.70;;;4.40;;
2049;SDS011;8478;49.208;8.806;2023-04-15T11:02:44;4.73;;;4.33;;
2049;SDS011;8478;49.208;8.806;2023-04-15T11:05:17;5.10;;;4.70;;
2049;SDS011;8478;49.208;8.806;2023-04-15T11:11:18;5.20;;;4.87;;
2049;SDS011;8478;49.208;8.806;2023-04-15T11:13:50;5.30;;;4.90;;
2049;SDS011;8478;49.208;8.806;2023-04-15T11:16:16;4.77;;;4.37;;
2049;SDS011;8478;49.208;8.806;2023-04-15T11:18:42;5.53;;;5.03;;
2049;SDS011;8478;49.208;8.806;2023-04-15T11:21:18;5.37;;;4.97;;
2049;SDS011;8478;49.208;8.806;2023-04-15T11:23:52;5.13;;;4.73;;
2049;SDS011;8478;49.208;8.806;2023-04-15T11:26:17;6.17;;;5.67;;
2049;SDS011;8478;49.208;8.806;2023-04-15T11:28:43;5.93;;;4.60;;
2049;SDS011;8478;49.208;8.806;2023-04-15T11:31:11;5.70;;;5.30;;
2049;SDS011;8478;49.208;8.806;2023-04-15T11:33:43;5.50;;;5.00;;
2049;SDS011;8478;49.208;8.806;2023-04-15T11:36:10;5.77;;;5.27;;
2049;SDS011;8478;49.208;8.806;2023-04-15T11:38:36;5.53;;;5.03;;
2049;SDS011;8478;49.208;8.806;2023-04-15T11:41:12;5.57;;;5.17;;
2049;SDS011;8478;49.208;8.806;2023-04-15T11:44:30;5.73;;;5.23;;
2049;SDS011;8478;49.208;8.806;2023-04-15T11:47:21;5.77;;;5.37;;
2049;SDS011;8478;49.208;8.806;2023-04-15T11:53:23;5.63;;;5.00;;
2049;SDS011;8478;49.208;8.806;2023-04-15T11:56:07;5.23;;;4.73;;
2049;SDS011;8478;49.208;8.806;2023-04-15T11:59:07;4.83;;;4.53;;
2049;SDS011;8478;49.208;8.806;2023-04-15T12:02:12;4.80;;;4.17;;
2049;SDS011;8478;49.208;8.806;2023-04-15T12:04:38;4.50;;;4.20;;
2049;SDS011;8478;49.208;8.806;2023-04-15T12:07:04;4.00;;;3.70;;
2049;SDS011;8478;49.208;8.806;2023-04-15T12:09:31;3.80;;;3.53;;
2049;SDS011;8478;49.208;8.806;2023-04-15T12:12:02;3.67;;;3.40;;
2049;SDS011;8478;49.208;8.806;2023-04-15T12:17:03;3.70;;;3.40;;
2049;SDS011;8478;49.208;8.806;2023-04-15T12:19:39;3.93;;;3.63;;
2049;SDS011;8478;49.208;8.806;2023-04-15T12:22:10;3.80;;;3.50;;
2049;SDS011;8478;49.208;8.806;2023-04-15T12:24:38;3.40;;;3.07;;
2049;SDS011;8478;49.208;8.806;2023-04-15T12:27:08;3.77;;;3.57;;
2049;SDS011;8478;49.208;8.806;2023-04-15T12:29:36;3.93;;;3.40;;
2049;SDS011;8478;49.208;8.806;2023-04-15T12:32:10;3.60;;;3.30;;
2049;SDS011;8478;49.208;8.806;2023-04-15T12:34:38;3.90;;;3.60;;
2049;SDS011;8478;49.208;8.806;2023-04-15T12:37:06;3.63;;;3.43;;
2049;SDS011;8478;49.208;8.806;2023-04-15T12:39:40;3.57;;;3.37;;
2049;SDS011;8478;49.208;8.806;2023-04-15T12:42:07;3.27;;;3.07;;
2049;SDS011;8478;49.208;8.806;2023-04-15T12:44:34;3.30;;;3.10;;
2049;SDS011;8478;49.208;8.806;2023-04-15T12:47:00;3.13;;;2.83;;
2049;SDS011;8478;49.208;8.806;2023-04-15T12:49:26;3.23;;;3.00;;
2049;SDS011;8478;49.208;8.806;2023-04-15T12:51:53;3.20;;;3.00;;
2049;SDS011;8478;49.208;8.806;2023-04-15T12:54:21;2.90;;;2.70;;
2049;SDS011;8478;49.208;8.806;2023-04-15T12:56:47;3.37;;;3.10;;
2049;SDS011;8478;49.208;8.806;2023-04-15T12:59:14;3.00;;;2.80;;
2049;SDS011;8478;49.208;8.806;2023-04-15T13:01:42;3.60;;;3.40;;
2049;SDS011;8478;49.208;8.806;2023-04-15T13:04:09;5.10;;;3.67;;
2049;SDS011;8478;49.208;8.806;2023-04-15T13:06:35;3.80;;;3.50;;
2049;SDS011;8478;49.208;8.806;2023-04-15T13:09:02;3.80;;;3.50;;
2049;SDS011;8478;49.208;8.806;2023-04-15T13:11:28;3.90;;;3.60;;
2049;SDS011;8478;49.208;8.806;2023-04-15T13:14:19;3.37;;;3.17;;
2049;SDS011;8478;49.208;8.806;2023-04-15T13:17:33;4.73;;;4.33;;
2049;SDS011;8478;49.208;8.806;2023-04-15T13:20:12;3.60;;;3.33;;
2049;SDS011;8478;49.208;8.806;2023-04-15T13:22:38;3.40;;;3.20;;
2049;SDS011;8478;49.208;8.806;2023-04-15T13:25:12;3.40;;;3.10;;
2049;SDS011;8478;49.208;8.806;2023-04-15T13:27:50;3.50;;;3.30;;
2049;SDS011;8478;49.208;8.806;2023-04-15T13:30:19;3.73;;;3.53;;
2049;SDS011;8478;49.208;8.806;2023-04-15T13:32:45;3.30;;;3.10;;
2049;SDS011;8478;49.208;8.806;2023-04-15T13:35:11;3.83;;;3.53;;
2049;SDS011;8478;49.208;8.806;2023-04-15T13:37:36;3.83;;;3.63;;
2049;SDS011;8478;49.208;8.806;2023-04-15T13:40:03;3.53;;;3.30;;
2049;SDS011;8478;49.208;8.806;2023-04-15T13:42:31;4.10;;;3.80;;
2049;SDS011;8478;49.208;8.806;2023-04-15T13:44:56;3.57;;;3.27;;
2049;SDS011;8478;49.208;8.806;2023-04-15T13:47:22;3.87;;;3.30;;
2049;SDS011;8478;49.208;8.806;2023-04-15T13:49:48;3.40;;;3.10;;
2049;SDS011;8478;49.208;8.806;2023-04-15T13:52:14;3.53;;;3.20;;
2049;SDS011;8478;49.208;8.806;2023-04-15T13:54:39;4.10;;;3.80;;
2049;SDS011;8478;49.208;8.806;2023-04-15T13:57:05;3.63;;;3.07;;
2049;SDS011;8478;49.208;8.806;2023-04-15T13:59:40;3.77;;;3.47;;
2049;SDS011;8478;49.208;8.806;2023-04-15T14:02:32;4.20;;;3.60;;
2049;SDS011;8478;49.208;8.806;2023-04-15T14:05:52;3.70;;;3.50;;
2049;SDS011;8478;49.208;8.806;2023-04-15T14:08:26;3.43;;;3.17;;
2049;SDS011;8478;49.208;8.806;2023-04-15T14:10:57;3.83;;;3.13;;
2049;SDS011;8478;49.208;8.806;2023-04-15T14:13:39;3.47;;;3.27;;
2049;SDS011;8478;49.208;8.806;2023-04-15T14:16:06;4.10;;;3.27;;
2049;SDS011;8478;49.208;8.806;2023-04-15T14:18:38;3.53;;;3.23;;
2049;SDS011;8478;49.208;8.806;2023-04-15T14:21:45;3.33;;;3.03;;
2049;SDS011;8478;49.208;8.806;2023-04-15T14:24:35;3.50;;;3.30;;
2049;SDS011;8478;49.208;8.806;2023-04-15T14:27:08;3.60;;;3.30;;
2049;SDS011;8478;49.208;8.806;2023-04-15T14:29:35;3.30;;;3.10;;
2049;SDS011;8478;49.208;8.806;2023-04-15T14:32:00;3.03;;;2.83;;
2049;SDS011;8478;49.208;8.806;2023-04-15T14:34:26;3.50;;;3.10;;
2049;SDS011;8478;49.208;8.806;2023-04-15T14:36:52;3.63;;;3.43;;
2049;SDS011;8478;49.208;8.806;2023-04-15T14:39:18;3.40;;;3.20;;
2049;SDS011;8478;49.208;8.806;2023-04-15T14:41:44;4.53;;;3.17;;
2049;SDS011;8478;49.208;8.806;2023-04-15T14:44:10;7.70;;;3.20;;
2049;SDS011;8478;49.208;8.806;2023-04-15T14:46:37;4.13;;;2.90;;
2049;SDS011;8478;49.208;8.806;2023-04-15T14:49:04;4.30;;;3.17;;
2049;SDS011;8478;49.208;8.806;2023-04-15T14:51:32;3.00;;;2.80;;
2049;SDS011;8478;49.208;8.806;2023-04-15T14:54:01;3.10;;;2.80;;
2049;SDS011;8478;49.208;8.806;2023-04-15T14:56:38;3.40;;;3.20;;
2049;SDS011;8478;49.208;8.806;2023-04-15T14:59:04;3.60;;;2.90;;
2049;SDS011;8478;49.208;8.806;2023-04-15T15:01:29;5.37;;;3.60;;
2049;SDS011;8478;49.208;8.806;2023-04-15T15:03:55;3.47;;;3.10;;
2049;SDS011;8478;49.208;8.806;2023-04-15T15:06:21;3.03;;;2.80;;
2049;SDS011;8478;49.208;8.806;2023-04-15T15:08:47;3.00;;;2.80;;
2049;SDS011;8478;49.208;8.806;2023-04-15T15:12:08;4.27;;;3.10;;
2049;SDS011;8478;49.208;8.806;2023-04-15T15:15:13;3.00;;;2.70;;
2049;SDS011;8478;49.208;8.806;2023-04-15T15:17:45;2.93;;;2.73;;
2049;SDS011;8478;49.208;8.806;2023-04-15T15:20:17;2.90;;;2.70;;
2049;SDS011;8478;49.208;8.806;2023-04-15T15:22:43;3.13;;;2.93;;
2049;SDS011;8478;49.208;8.806;2023-04-15T15:25:09;2.83;;;2.60;;
2049;SDS011;8478;49.208;8.806;2023-04-15T15:27:34;3.20;;;3.00;;
2049;SDS011;8478;49.208;8.806;2023-04-15T15:30:01;3.00;;;2.80;;
2049;SDS011;8478;49.208;8.806;2023-04-15T15:32:27;3.17;;;2.97;;
2049;SDS011;8478;49.208;8.806;2023-04-15T15:34:53;3.07;;;2.87;;
2049;SDS011;8478;49.208;8.806;2023-04-15T15:37:19;3.13;;;2.93;;
2049;SDS011;8478;49.208;8.806;2023-04-15T15:39:45;3.40;;;3.20;;
2049;SDS011;8478;49.208;8.806;2023-04-15T15:42:10;2.93;;;2.73;;
2049;SDS011;8478;49.208;8.806;2023-04-15T15:44:36;2.93;;;2.73;;
2049;SDS011;8478;49.208;8.806;2023-04-15T15:47:03;3.10;;;3.00;;
2049;SDS011;8478;49.208;8.806;2023-04-15T15:49:29;5.53;;;3.67;;
2049;SDS011;8478;49.208;8.806;2023-04-15T15:51:55;60.70;;;11.23;;